sensor_id;sensor_type;location;lat;lon;timestamp;temperature;humidity
55828;DHT22;41758;51.992;5.890;2023-08-31T00:00:10;17.50;69.30
55828;DHT22;41758;51.992;5.890;2023-08-31T00:02:39;17.50;69.30
55828;DHT22;41758;51.992;5.890;2023-08-31T00:05:05;17.40;69.30
55828;DHT22;41758;51.992;5.890;2023-08-31T00:07:31;17.40;69.30
55828;DHT22;41758;51.992;5.890;2023-08-31T00:09:57;17.40;69.30
55828;DHT22;41758;51.992;5.890;2023-08-31T00:12:24;17.40;69.30
55828;DHT22;41758;51.992;5.890;2023-08-31T00:14:51;17.40;69.40
55828;DHT22;41758;51.992;5.890;2023-08-31T00:17:16;17.40;69.40
55828;DHT22;41758;51.992;5.890;2023-08-31T00:19:43;17.40;69.30
55828;DHT22;41758;51.992;5.890;2023-08-31T00:22:09;17.40;69.30
55828;DHT22;41758;51.992;5.890;2023-08-31T00:24:35;17.40;69.30
55828;DHT22;41758;51.992;5.890;2023-08-31T00:27:03;17.30;69.30
55828;DHT22;41758;51.992;5.890;2023-08-31T00:29:29;17.30;69.30
55828;DHT22;41758;51.992;5.890;2023-08-31T00:31:56;17.30;69.30
55828;DHT22;41758;51.992;5.890;2023-08-31T00:34:22;17.30;69.30
55828;DHT22;41758;51.992;5.890;2023-08-31T00:36:48;17.30;69.30
55828;DHT22;41758;51.992;5.890;2023-08-31T00:39:14;17.30;69.30
55828;DHT22;41758;51.992;5.890;2023-08-31T00:41:41;17.30;69.30
55828;DHT22;41758;51.992;5.890;2023-08-31T00:44:07;17.30;69.30
55828;DHT22;41758;51.992;5.890;2023-08-31T00:46:34;17.30;69.40
55828;DHT22;41758;51.992;5.890;2023-08-31T00:49:00;17.30;69.40
55828;DHT22;41758;51.992;5.890;2023-08-31T00:51:26;17.30;69.40
55828;DHT22;41758;51.992;5.890;2023-08-31T00:53:52;17.30;69.40
55828;DHT22;41758;51.992;5.890;2023-08-31T00:56:21;17.20;69.40
55828;DHT22;41758;51.992;5.890;2023-08-31T00:58:47;17.20;69.50
55828;DHT22;41758;51.992;5.890;2023-08-31T01:01:24;17.20;69.50
55828;DHT22;41758;51.992;5.890;2023-08-31T01:04:21;17.20;69.50
55828;DHT22;41758;51.992;5.890;2023-08-31T01:12:50;17.20;69.50
55828;DHT22;41758;51.992;5.890;2023-08-31T01:15:18;17.20;69.70
55828;DHT22;41758;51.992;5.890;2023-08-31T01:17:49;17.20;69.70
55828;DHT22;41758;51.992;5.890;2023-08-31T01:20:33;17.20;69.70
55828;DHT22;41758;51.992;5.890;2023-08-31T01:23:04;17.20;69.70
55828;DHT22;41758;51.992;5.890;2023-08-31T01:25:32;17.30;69.70
55828;DHT22;41758;51.992;5.890;2023-08-31T01:27:59;17.30;69.50
55828;DHT22;41758;51.992;5.890;2023-08-31T01:30:31;17.20;69.60
55828;DHT22;41758;51.992;5.890;2023-08-31T01:32:57;17.20;69.70
55828;DHT22;41758;51.992;5.890;2023-08-31T01:35:24;17.20;69.80
55828;DHT22;41758;51.992;5.890;2023-08-31T01:37:54;17.20;69.80
55828;DHT22;41758;51.992;5.890;2023-08-31T01:42:50;17.30;69.80
55828;DHT22;41758;51.992;5.890;2023-08-31T01:45:21;17.30;69.90
55828;DHT22;41758;51.992;5.890;2023-08-31T01:47:48;17.30;70.00
55828;DHT22;41758;51.992;5.890;2023-08-31T01:50:14;17.30;70.00
55828;DHT22;41758;51.992;5.890;2023-08-31T01:52:40;17.30;70.00
55828;DHT22;41758;51.992;5.890;2023-08-31T01:55:06;17.30;70.00
55828;DHT22;41758;51.992;5.890;2023-08-31T01:57:32;17.30;70.00
55828;DHT22;41758;51.992;5.890;2023-08-31T02:00:11;17.40;70.00
55828;DHT22;41758;51.992;5.890;2023-08-31T02:02:40;17.40;69.90
55828;DHT22;41758;51.992;5.890;2023-08-31T02:05:07;17.40;69.90
55828;DHT22;41758;51.992;5.890;2023-08-31T02:07:33;17.40;69.80
55828;DHT22;41758;51.992;5.890;2023-08-31T02:09:59;17.40;69.80
55828;DHT22;41758;51.992;5.890;2023-08-31T02:12:24;17.40;69.90
55828;DHT22;41758;51.992;5.890;2023-08-31T02:14:50;17.40;69.90
55828;DHT22;41758;51.992;5.890;2023-08-31T02:17:16;17.40;69.90
55828;DHT22;41758;51.992;5.890;2023-08-31T02:19:41;17.40;70.00
55828;DHT22;41758;51.992;5.890;2023-08-31T02:22:08;17.50;70.00
55828;DHT22;41758;51.992;5.890;2023-08-31T02:24:33;17.50;69.90
55828;DHT22;41758;51.992;5.890;2023-08-31T02:26:59;17.50;69.90
55828;DHT22;41758;51.992;5.890;2023-08-31T02:29:25;17.50;69.90
55828;DHT22;41758;51.992;5.890;2023-08-31T02:31:51;17.50;69.90
55828;DHT22;41758;51.992;5.890;2023-08-31T02:34:17;17.50;69.90
55828;DHT22;41758;51.992;5.890;2023-08-31T02:36:42;17.50;69.90
55828;DHT22;41758;51.992;5.890;2023-08-31T02:39:09;17.60;69.90
55828;DHT22;41758;51.992;5.890;2023-08-31T02:41:36;17.60;69.80
55828;DHT22;41758;51.992;5.890;2023-08-31T02:44:04;17.50;69.90
55828;DHT22;41758;51.992;5.890;2023-08-31T02:46:31;17.60;69.90
55828;DHT22;41758;51.992;5.890;2023-08-31T02:48:56;17.60;69.90
55828;DHT22;41758;51.992;5.890;2023-08-31T02:51:22;17.60;70.00
55828;DHT22;41758;51.992;5.890;2023-08-31T02:53:48;17.60;70.10
55828;DHT22;41758;51.992;5.890;2023-08-31T02:56:14;17.60;70.20
55828;DHT22;41758;51.992;5.890;2023-08-31T02:58:40;17.60;70.20
55828;DHT22;41758;51.992;5.890;2023-08-31T03:01:10;17.60;70.30
55828;DHT22;41758;51.992;5.890;2023-08-31T03:03:42;17.70;70.30
55828;DHT22;41758;51.992;5.890;2023-08-31T03:06:09;17.80;70.30
55828;DHT22;41758;51.992;5.890;2023-08-31T03:08:36;17.80;70.20
55828;DHT22;41758;51.992;5.890;2023-08-31T03:11:05;17.80;70.30
55828;DHT22;41758;51.992;5.890;2023-08-31T03:13:32;17.90;70.20
55828;DHT22;41758;51.992;5.890;2023-08-31T03:15:59;17.90;70.20
55828;DHT22;41758;51.992;5.890;2023-08-31T03:18:25;17.90;70.20
55828;DHT22;41758;51.992;5.890;2023-08-31T03:20:50;17.90;70.10
55828;DHT22;41758;51.992;5.890;2023-08-31T03:23:17;18.00;70.10
55828;DHT22;41758;51.992;5.890;2023-08-31T03:25:43;18.00;70.10
55828;DHT22;41758;51.992;5.890;2023-08-31T03:28:08;18.00;70.00
55828;DHT22;41758;51.992;5.890;2023-08-31T03:30:35;18.00;70.00
55828;DHT22;41758;51.992;5.890;2023-08-31T03:33:01;18.00;70.00
55828;DHT22;41758;51.992;5.890;2023-08-31T03:35:28;18.00;70.00
55828;DHT22;41758;51.992;5.890;2023-08-31T03:37:56;18.10;70.00
55828;DHT22;41758;51.992;5.890;2023-08-31T03:40:22;18.10;69.90
55828;DHT22;41758;51.992;5.890;2023-08-31T03:42:50;18.00;69.90
55828;DHT22;41758;51.992;5.890;2023-08-31T03:45:17;18.10;69.80
55828;DHT22;41758;51.992;5.890;2023-08-31T03:47:43;18.10;69.80
55828;DHT22;41758;51.992;5.890;2023-08-31T03:50:10;18.00;69.80
55828;DHT22;41758;51.992;5.890;2023-08-31T03:52:35;18.10;69.70
55828;DHT22;41758;51.992;5.890;2023-08-31T03:55:01;18.00;69.70
55828;DHT22;41758;51.992;5.890;2023-08-31T03:57:27;18.00;69.70
55828;DHT22;41758;51.992;5.890;2023-08-31T03:59:57;18.00;69.70
55828;DHT22;41758;51.992;5.890;2023-08-31T04:02:23;18.00;69.70
55828;DHT22;41758;51.992;5.890;2023-08-31T04:04:50;18.00;69.70
55828;DHT22;41758;51.992;5.890;2023-08-31T04:07:16;18.00;69.70
55828;DHT22;41758;51.992;5.890;2023-08-31T04:09:41;18.10;69.80
55828;DHT22;41758;51.992;5.890;2023-08-31T04:12:10;18.00;69.70
55828;DHT22;41758;51.992;5.890;2023-08-31T04:14:41;18.00;69.80
55828;DHT22;41758;51.992;5.890;2023-08-31T04:17:07;18.00;69.70
55828;DHT22;41758;51.992;5.890;2023-08-31T04:19:33;18.00;69.70
55828;DHT22;41758;51.992;5.890;2023-08-31T04:21:58;18.00;69.70
55828;DHT22;41758;51.992;5.890;2023-08-31T04:24:24;18.00;69.80
55828;DHT22;41758;51.992;5.890;2023-08-31T04:26:50;18.00;69.80
55828;DHT22;41758;51.992;5.890;2023-08-31T04:29:16;18.00;69.80
55828;DHT22;41758;51.992;5.890;2023-08-31T04:31:42;18.00;69.80
55828;DHT22;41758;51.992;5.890;2023-08-31T04:34:08;18.00;69.90
55828;DHT22;41758;51.992;5.890;2023-08-31T04:36:33;18.10;69.90
55828;DHT22;41758;51.992;5.890;2023-08-31T04:38:59;18.10;69.90
55828;DHT22;41758;51.992;5.890;2023-08-31T04:41:28;18.10;69.90
55828;DHT22;41758;51.992;5.890;2023-08-31T04:43:53;18.10;69.90
55828;DHT22;41758;51.992;5.890;2023-08-31T04:46:19;18.10;69.90
55828;DHT22;41758;51.992;5.890;2023-08-31T04:48:45;18.10;69.80
55828;DHT22;41758;51.992;5.890;2023-08-31T04:51:36;18.10;69.80
55828;DHT22;41758;51.992;5.890;2023-08-31T04:54:07;18.10;69.60
55828;DHT22;41758;51.992;5.890;2023-08-31T04:56:33;18.00;69.70
55828;DHT22;41758;51.992;5.890;2023-08-31T04:59:05;17.90;69.80
55828;DHT22;41758;51.992;5.890;2023-08-31T05:01:37;18.00;69.90
55828;DHT22;41758;51.992;5.890;2023-08-31T05:04:06;17.90;69.90
55828;DHT22;41758;51.992;5.890;2023-08-31T05:06:35;17.90;70.00
55828;DHT22;41758;51.992;5.890;2023-08-31T05:09:10;17.90;70.00
55828;DHT22;41758;51.992;5.890;2023-08-31T05:11:38;17.90;70.00
55828;DHT22;41758;51.992;5.890;2023-08-31T05:14:04;17.80;70.10
55828;DHT22;41758;51.992;5.890;2023-08-31T05:16:30;17.80;70.10
55828;DHT22;41758;51.992;5.890;2023-08-31T05:18:55;17.90;70.20
55828;DHT22;41758;51.992;5.890;2023-08-31T05:21:21;17.80;70.10
55828;DHT22;41758;51.992;5.890;2023-08-31T05:23:47;17.80;70.10
55828;DHT22;41758;51.992;5.890;2023-08-31T05:26:12;17.80;70.10
55828;DHT22;41758;51.992;5.890;2023-08-31T05:28:39;17.80;70.20
55828;DHT22;41758;51.992;5.890;2023-08-31T05:31:05;17.80;70.30
55828;DHT22;41758;51.992;5.890;2023-08-31T05:33:30;17.80;70.20
55828;DHT22;41758;51.992;5.890;2023-08-31T05:36:01;17.70;70.10
55828;DHT22;41758;51.992;5.890;2023-08-31T05:38:29;17.60;70.30
55828;DHT22;41758;51.992;5.890;2023-08-31T05:40:56;17.60;70.50
55828;DHT22;41758;51.992;5.890;2023-08-31T05:43:28;17.60;70.60
55828;DHT22;41758;51.992;5.890;2023-08-31T05:45:53;17.50;70.60
55828;DHT22;41758;51.992;5.890;2023-08-31T05:48:19;17.50;70.70
55828;DHT22;41758;51.992;5.890;2023-08-31T05:50:45;17.40;70.80
55828;DHT22;41758;51.992;5.890;2023-08-31T05:53:10;17.50;70.90
55828;DHT22;41758;51.992;5.890;2023-08-31T05:55:36;17.40;71.00
55828;DHT22;41758;51.992;5.890;2023-08-31T05:58:02;17.40;71.10
55828;DHT22;41758;51.992;5.890;2023-08-31T06:00:28;17.40;71.20
55828;DHT22;41758;51.992;5.890;2023-08-31T06:02:53;17.50;71.30
55828;DHT22;41758;51.992;5.890;2023-08-31T06:05:19;17.50;71.30
55828;DHT22;41758;51.992;5.890;2023-08-31T06:07:45;17.50;71.30
55828;DHT22;41758;51.992;5.890;2023-08-31T06:10:11;17.50;71.30
55828;DHT22;41758;51.992;5.890;2023-08-31T06:12:40;17.50;71.40
55828;DHT22;41758;51.992;5.890;2023-08-31T06:15:06;17.50;71.50
55828;DHT22;41758;51.992;5.890;2023-08-31T06:17:31;17.60;71.40
55828;DHT22;41758;51.992;5.890;2023-08-31T06:19:57;17.60;71.40
55828;DHT22;41758;51.992;5.890;2023-08-31T06:22:23;17.60;71.30
55828;DHT22;41758;51.992;5.890;2023-08-31T06:24:50;17.60;71.30
55828;DHT22;41758;51.992;5.890;2023-08-31T06:27:17;17.60;71.20
55828;DHT22;41758;51.992;5.890;2023-08-31T06:29:43;17.60;71.20
55828;DHT22;41758;51.992;5.890;2023-08-31T06:32:09;17.60;71.20
55828;DHT22;41758;51.992;5.890;2023-08-31T06:34:34;17.50;71.30
55828;DHT22;41758;51.992;5.890;2023-08-31T06:37:00;17.60;71.50
55828;DHT22;41758;51.992;5.890;2023-08-31T06:39:26;17.60;71.80
55828;DHT22;41758;51.992;5.890;2023-08-31T06:41:52;17.80;72.10
55828;DHT22;41758;51.992;5.890;2023-08-31T06:44:17;17.80;72.20
55828;DHT22;41758;51.992;5.890;2023-08-31T06:46:43;17.90;72.20
55828;DHT22;41758;51.992;5.890;2023-08-31T06:49:09;18.00;72.00
55828;DHT22;41758;51.992;5.890;2023-08-31T06:51:35;18.00;71.80
55828;DHT22;41758;51.992;5.890;2023-08-31T06:54:02;18.00;71.50
55828;DHT22;41758;51.992;5.890;2023-08-31T06:56:37;18.00;71.30
55828;DHT22;41758;51.992;5.890;2023-08-31T06:59:03;17.90;71.10
55828;DHT22;41758;51.992;5.890;2023-08-31T07:01:29;17.80;71.20
55828;DHT22;41758;51.992;5.890;2023-08-31T07:03:55;17.90;71.40
55828;DHT22;41758;51.992;5.890;2023-08-31T07:06:21;17.90;71.50
55828;DHT22;41758;51.992;5.890;2023-08-31T07:08:47;17.80;71.50
55828;DHT22;41758;51.992;5.890;2023-08-31T07:11:14;17.90;71.50
55828;DHT22;41758;51.992;5.890;2023-08-31T07:13:40;17.80;71.60
55828;DHT22;41758;51.992;5.890;2023-08-31T07:16:06;17.80;71.80
55828;DHT22;41758;51.992;5.890;2023-08-31T07:18:32;17.80;71.90
55828;DHT22;41758;51.992;5.890;2023-08-31T07:20:58;17.80;71.80
55828;DHT22;41758;51.992;5.890;2023-08-31T07:23:23;17.90;72.00
55828;DHT22;41758;51.992;5.890;2023-08-31T07:25:49;17.90;71.90
55828;DHT22;41758;51.992;5.890;2023-08-31T07:28:15;17.80;71.90
55828;DHT22;41758;51.992;5.890;2023-08-31T07:30:41;17.90;72.10
55828;DHT22;41758;51.992;5.890;2023-08-31T07:33:07;17.90;72.10
55828;DHT22;41758;51.992;5.890;2023-08-31T07:35:33;17.90;71.90
55828;DHT22;41758;51.992;5.890;2023-08-31T07:37:58;17.80;72.00
55828;DHT22;41758;51.992;5.890;2023-08-31T07:40:24;17.80;72.10
55828;DHT22;41758;51.992;5.890;2023-08-31T07:42:53;17.80;72.10
55828;DHT22;41758;51.992;5.890;2023-08-31T07:45:19;17.80;72.30
55828;DHT22;41758;51.992;5.890;2023-08-31T07:47:45;17.90;72.60
55828;DHT22;41758;51.992;5.890;2023-08-31T07:50:10;18.10;72.70
55828;DHT22;41758;51.992;5.890;2023-08-31T07:52:37;18.10;72.80
55828;DHT22;41758;51.992;5.890;2023-08-31T07:55:03;18.20;72.70
55828;DHT22;41758;51.992;5.890;2023-08-31T07:57:29;18.30;72.70
55828;DHT22;41758;51.992;5.890;2023-08-31T07:59:55;18.30;72.70
55828;DHT22;41758;51.992;5.890;2023-08-31T08:02:21;18.40;72.70
55828;DHT22;41758;51.992;5.890;2023-08-31T08:04:46;18.40;72.80
55828;DHT22;41758;51.992;5.890;2023-08-31T08:07:12;18.50;72.70
55828;DHT22;41758;51.992;5.890;2023-08-31T08:09:38;18.60;72.60
55828;DHT22;41758;51.992;5.890;2023-08-31T08:12:03;18.60;72.50
55828;DHT22;41758;51.992;5.890;2023-08-31T08:14:29;18.60;72.20
55828;DHT22;41758;51.992;5.890;2023-08-31T08:16:55;18.60;72.30
55828;DHT22;41758;51.992;5.890;2023-08-31T08:19:24;18.60;72.40
55828;DHT22;41758;51.992;5.890;2023-08-31T08:21:50;18.60;72.40
55828;DHT22;41758;51.992;5.890;2023-08-31T08:24:16;18.60;72.40
55828;DHT22;41758;51.992;5.890;2023-08-31T08:26:42;18.70;72.30
55828;DHT22;41758;51.992;5.890;2023-08-31T08:29:07;18.60;72.40
55828;DHT22;41758;51.992;5.890;2023-08-31T08:31:33;18.70;72.50
55828;DHT22;41758;51.992;5.890;2023-08-31T08:33:59;18.80;72.60
55828;DHT22;41758;51.992;5.890;2023-08-31T08:36:25;18.80;72.70
55828;DHT22;41758;51.992;5.890;2023-08-31T08:38:51;18.80;72.90
55828;DHT22;41758;51.992;5.890;2023-08-31T08:41:21;18.90;73.20
55828;DHT22;41758;51.992;5.890;2023-08-31T08:43:48;19.00;73.20
55828;DHT22;41758;51.992;5.890;2023-08-31T08:46:16;19.10;73.00
55828;DHT22;41758;51.992;5.890;2023-08-31T08:48:42;19.10;72.70
55828;DHT22;41758;51.992;5.890;2023-08-31T08:51:10;19.00;72.70
55828;DHT22;41758;51.992;5.890;2023-08-31T08:53:36;19.10;73.00
55828;DHT22;41758;51.992;5.890;2023-08-31T08:56:04;19.10;73.10
55828;DHT22;41758;51.992;5.890;2023-08-31T08:58:30;19.30;73.30
55828;DHT22;41758;51.992;5.890;2023-08-31T09:00:56;19.30;73.40
55828;DHT22;41758;51.992;5.890;2023-08-31T09:03:23;19.50;73.40
55828;DHT22;41758;51.992;5.890;2023-08-31T09:05:50;19.50;73.10
55828;DHT22;41758;51.992;5.890;2023-08-31T09:08:16;19.60;73.10
55828;DHT22;41758;51.992;5.890;2023-08-31T09:10:43;19.60;73.00
55828;DHT22;41758;51.992;5.890;2023-08-31T09:13:10;19.60;72.80
55828;DHT22;41758;51.992;5.890;2023-08-31T09:18:04;19.70;72.60
55828;DHT22;41758;51.992;5.890;2023-08-31T09:20:30;19.70;72.70
55828;DHT22;41758;51.992;5.890;2023-08-31T09:22:56;19.70;72.80
55828;DHT22;41758;51.992;5.890;2023-08-31T09:25:21;19.80;73.00
55828;DHT22;41758;51.992;5.890;2023-08-31T09:27:48;19.80;73.10
55828;DHT22;41758;51.992;5.890;2023-08-31T09:30:14;19.90;73.10
55828;DHT22;41758;51.992;5.890;2023-08-31T09:32:40;20.00;73.20
55828;DHT22;41758;51.992;5.890;2023-08-31T09:35:11;20.00;73.00
55828;DHT22;41758;51.992;5.890;2023-08-31T09:37:36;20.10;72.70
55828;DHT22;41758;51.992;5.890;2023-08-31T09:40:03;20.00;72.70
55828;DHT22;41758;51.992;5.890;2023-08-31T09:42:38;20.00;72.90
55828;DHT22;41758;51.992;5.890;2023-08-31T09:45:04;20.10;73.00
55828;DHT22;41758;51.992;5.890;2023-08-31T09:47:30;20.10;73.10
55828;DHT22;41758;51.992;5.890;2023-08-31T09:49:57;20.20;73.10
55828;DHT22;41758;51.992;5.890;2023-08-31T09:52:24;20.30;73.30
55828;DHT22;41758;51.992;5.890;2023-08-31T09:54:51;20.30;73.00
55828;DHT22;41758;51.992;5.890;2023-08-31T09:57:20;20.40;73.10
55828;DHT22;41758;51.992;5.890;2023-08-31T09:59:47;20.40;72.80
55828;DHT22;41758;51.992;5.890;2023-08-31T10:02:15;20.50;73.00
55828;DHT22;41758;51.992;5.890;2023-08-31T10:04:42;20.50;72.70
55828;DHT22;41758;51.992;5.890;2023-08-31T10:07:08;20.50;72.50
55828;DHT22;41758;51.992;5.890;2023-08-31T10:09:36;20.50;72.00
55828;DHT22;41758;51.992;5.890;2023-08-31T10:12:04;20.40;71.80
55828;DHT22;41758;51.992;5.890;2023-08-31T10:14:30;20.30;72.00
55828;DHT22;41758;51.992;5.890;2023-08-31T10:16:57;20.30;72.10
55828;DHT22;41758;51.992;5.890;2023-08-31T10:19:23;20.20;72.30
55828;DHT22;41758;51.992;5.890;2023-08-31T10:21:49;20.20;72.70
55828;DHT22;41758;51.992;5.890;2023-08-31T10:24:15;20.30;72.90
55828;DHT22;41758;51.992;5.890;2023-08-31T10:26:41;20.30;72.70
55828;DHT22;41758;51.992;5.890;2023-08-31T10:29:25;20.20;72.40
55828;DHT22;41758;51.992;5.890;2023-08-31T10:31:52;20.20;72.50
55828;DHT22;41758;51.992;5.890;2023-08-31T10:34:34;20.20;73.00
55828;DHT22;41758;51.992;5.890;2023-08-31T10:37:00;20.30;73.00
55828;DHT22;41758;51.992;5.890;2023-08-31T10:39:37;20.30;73.40
55828;DHT22;41758;51.992;5.890;2023-08-31T10:42:03;20.40;73.40
55828;DHT22;41758;51.992;5.890;2023-08-31T10:44:31;20.40;73.50
55828;DHT22;41758;51.992;5.890;2023-08-31T10:47:00;20.50;74.00
55828;DHT22;41758;51.992;5.890;2023-08-31T10:49:26;20.70;74.30
55828;DHT22;41758;51.992;5.890;2023-08-31T10:59:52;20.90;72.80
55828;DHT22;41758;51.992;5.890;2023-08-31T11:05:26;20.90;73.40
55828;DHT22;41758;51.992;5.890;2023-08-31T11:07:52;21.00;73.50
55828;DHT22;41758;51.992;5.890;2023-08-31T11:10:20;21.10;73.50
55828;DHT22;41758;51.992;5.890;2023-08-31T11:12:48;21.10;73.20
55828;DHT22;41758;51.992;5.890;2023-08-31T11:15:16;21.20;73.40
55828;DHT22;41758;51.992;5.890;2023-08-31T11:17:42;21.40;74.20
55828;DHT22;41758;51.992;5.890;2023-08-31T11:20:17;21.50;73.60
55828;DHT22;41758;51.992;5.890;2023-08-31T11:22:47;21.70;74.00
55828;DHT22;41758;51.992;5.890;2023-08-31T11:25:16;21.90;74.50
55828;DHT22;41758;51.992;5.890;2023-08-31T11:27:42;22.10;74.20
55828;DHT22;41758;51.992;5.890;2023-08-31T11:30:18;22.20;73.10
55828;DHT22;41758;51.992;5.890;2023-08-31T11:32:49;22.30;72.80
55828;DHT22;41758;51.992;5.890;2023-08-31T11:35:15;22.20;71.20
55828;DHT22;41758;51.992;5.890;2023-08-31T11:37:45;22.00;70.80
55828;DHT22;41758;51.992;5.890;2023-08-31T11:40:13;21.90;70.80
55828;DHT22;41758;51.992;5.890;2023-08-31T11:42:40;21.80;70.80
55828;DHT22;41758;51.992;5.890;2023-08-31T11:45:06;21.70;71.00
55828;DHT22;41758;51.992;5.890;2023-08-31T11:47:33;21.80;72.10
55828;DHT22;41758;51.992;5.890;2023-08-31T11:50:00;21.90;73.00
55828;DHT22;41758;51.992;5.890;2023-08-31T11:52:27;22.20;73.70
55828;DHT22;41758;51.992;5.890;2023-08-31T11:54:53;22.40;74.00
55828;DHT22;41758;51.992;5.890;2023-08-31T11:57:25;22.70;74.10
55828;DHT22;41758;51.992;5.890;2023-08-31T11:59:51;22.90;74.00
55828;DHT22;41758;51.992;5.890;2023-08-31T12:02:20;23.10;73.80
55828;DHT22;41758;51.992;5.890;2023-08-31T12:04:47;23.30;73.70
55828;DHT22;41758;51.992;5.890;2023-08-31T12:07:18;23.50;73.10
55828;DHT22;41758;51.992;5.890;2023-08-31T12:09:45;23.80;73.30
55828;DHT22;41758;51.992;5.890;2023-08-31T12:12:13;23.90;73.40
55828;DHT22;41758;51.992;5.890;2023-08-31T12:14:39;24.20;73.60
55828;DHT22;41758;51.992;5.890;2023-08-31T12:17:07;24.40;73.70
55828;DHT22;41758;51.992;5.890;2023-08-31T12:19:35;24.70;73.60
55828;DHT22;41758;51.992;5.890;2023-08-31T12:22:02;24.80;72.00
55828;DHT22;41758;51.992;5.890;2023-08-31T12:24:28;24.90;70.20
55828;DHT22;41758;51.992;5.890;2023-08-31T12:26:53;24.80;68.30
55828;DHT22;41758;51.992;5.890;2023-08-31T12:29:20;24.60;68.70
55828;DHT22;41758;51.992;5.890;2023-08-31T12:31:46;24.40;67.70
55828;DHT22;41758;51.992;5.890;2023-08-31T12:34:11;24.20;66.70
55828;DHT22;41758;51.992;5.890;2023-08-31T12:36:37;24.00;67.60
55828;DHT22;41758;51.992;5.890;2023-08-31T12:39:06;24.00;69.00
55828;DHT22;41758;51.992;5.890;2023-08-31T12:41:33;24.00;69.20
55828;DHT22;41758;51.992;5.890;2023-08-31T12:43:58;24.10;69.70
55828;DHT22;41758;51.992;5.890;2023-08-31T12:46:24;24.20;69.90
55828;DHT22;41758;51.992;5.890;2023-08-31T12:48:50;24.30;70.20
55828;DHT22;41758;51.992;5.890;2023-08-31T12:51:18;24.40;70.70
55828;DHT22;41758;51.992;5.890;2023-08-31T12:53:44;24.50;70.80
55828;DHT22;41758;51.992;5.890;2023-08-31T12:56:09;24.60;70.10
55828;DHT22;41758;51.992;5.890;2023-08-31T12:58:35;24.40;66.10
55828;DHT22;41758;51.992;5.890;2023-08-31T13:01:01;24.30;65.70
55828;DHT22;41758;51.992;5.890;2023-08-31T13:03:28;24.20;67.40
55828;DHT22;41758;51.992;5.890;2023-08-31T13:05:54;24.30;67.00
55828;DHT22;41758;51.992;5.890;2023-08-31T13:08:20;24.10;65.90
55828;DHT22;41758;51.992;5.890;2023-08-31T13:10:54;24.10;65.90
55828;DHT22;41758;51.992;5.890;2023-08-31T13:13:21;24.00;66.50
55828;DHT22;41758;51.992;5.890;2023-08-31T13:15:47;24.10;67.50
55828;DHT22;41758;51.992;5.890;2023-08-31T13:18:13;24.10;67.50
55828;DHT22;41758;51.992;5.890;2023-08-31T13:20:39;24.10;67.00
55828;DHT22;41758;51.992;5.890;2023-08-31T13:23:06;24.10;66.70
55828;DHT22;41758;51.992;5.890;2023-08-31T13:25:32;24.00;65.60
55828;DHT22;41758;51.992;5.890;2023-08-31T13:27:57;23.90;67.00
55828;DHT22;41758;51.992;5.890;2023-08-31T13:30:23;23.90;67.90
55828;DHT22;41758;51.992;5.890;2023-08-31T13:32:49;24.00;68.70
55828;DHT22;41758;51.992;5.890;2023-08-31T13:35:15;24.00;67.80
55828;DHT22;41758;51.992;5.890;2023-08-31T13:37:41;24.00;68.20
55828;DHT22;41758;51.992;5.890;2023-08-31T13:40:07;24.00;68.80
55828;DHT22;41758;51.992;5.890;2023-08-31T13:42:35;24.10;69.40
55828;DHT22;41758;51.992;5.890;2023-08-31T13:45:12;24.20;69.20
55828;DHT22;41758;51.992;5.890;2023-08-31T13:47:38;24.30;68.70
55828;DHT22;41758;51.992;5.890;2023-08-31T13:50:04;24.30;69.30
55828;DHT22;41758;51.992;5.890;2023-08-31T13:52:30;24.40;69.10
55828;DHT22;41758;51.992;5.890;2023-08-31T13:54:55;24.40;66.30
55828;DHT22;41758;51.992;5.890;2023-08-31T13:57:21;24.40;67.60
55828;DHT22;41758;51.992;5.890;2023-08-31T13:59:47;24.50;68.40
55828;DHT22;41758;51.992;5.890;2023-08-31T14:02:12;24.60;68.70
55828;DHT22;41758;51.992;5.890;2023-08-31T14:04:38;24.70;69.10
55828;DHT22;41758;51.992;5.890;2023-08-31T14:07:04;24.80;68.70
55828;DHT22;41758;51.992;5.890;2023-08-31T14:09:29;24.80;68.70
55828;DHT22;41758;51.992;5.890;2023-08-31T14:11:55;24.80;68.90
55828;DHT22;41758;51.992;5.890;2023-08-31T14:14:23;24.80;68.90
55828;DHT22;41758;51.992;5.890;2023-08-31T14:16:49;24.80;68.20
55828;DHT22;41758;51.992;5.890;2023-08-31T14:19:16;24.80;67.50
55828;DHT22;41758;51.992;5.890;2023-08-31T14:21:41;24.80;67.70
55828;DHT22;41758;51.992;5.890;2023-08-31T14:24:07;24.80;68.40
55828;DHT22;41758;51.992;5.890;2023-08-31T14:26:33;24.80;66.70
55828;DHT22;41758;51.992;5.890;2023-08-31T14:28:59;24.70;67.00
55828;DHT22;41758;51.992;5.890;2023-08-31T14:31:24;24.70;64.20
55828;DHT22;41758;51.992;5.890;2023-08-31T14:33:50;24.60;65.00
55828;DHT22;41758;51.992;5.890;2023-08-31T14:36:18;24.50;65.90
55828;DHT22;41758;51.992;5.890;2023-08-31T14:38:43;24.50;66.70
55828;DHT22;41758;51.992;5.890;2023-08-31T14:41:11;24.50;66.80
55828;DHT22;41758;51.992;5.890;2023-08-31T14:43:36;24.60;67.50
55828;DHT22;41758;51.992;5.890;2023-08-31T14:46:02;24.60;66.10
55828;DHT22;41758;51.992;5.890;2023-08-31T14:48:29;24.60;64.90
55828;DHT22;41758;51.992;5.890;2023-08-31T14:50:55;24.60;64.80
55828;DHT22;41758;51.992;5.890;2023-08-31T14:53:26;24.60;64.40
55828;DHT22;41758;51.992;5.890;2023-08-31T14:55:52;24.60;65.50
55828;DHT22;41758;51.992;5.890;2023-08-31T14:58:18;24.70;66.40
55828;DHT22;41758;51.992;5.890;2023-08-31T15:00:44;24.80;66.80
55828;DHT22;41758;51.992;5.890;2023-08-31T15:03:11;24.80;67.00
55828;DHT22;41758;51.992;5.890;2023-08-31T15:05:37;24.90;67.20
55828;DHT22;41758;51.992;5.890;2023-08-31T15:08:06;24.90;67.40
55828;DHT22;41758;51.992;5.890;2023-08-31T15:10:35;24.90;65.90
55828;DHT22;41758;51.992;5.890;2023-08-31T15:13:00;24.80;66.20
55828;DHT22;41758;51.992;5.890;2023-08-31T15:15:29;24.80;65.90
55828;DHT22;41758;51.992;5.890;2023-08-31T15:17:58;24.70;66.40
55828;DHT22;41758;51.992;5.890;2023-08-31T15:20:25;24.70;66.70
55828;DHT22;41758;51.992;5.890;2023-08-31T15:22:55;24.70;67.00
55828;DHT22;41758;51.992;5.890;2023-08-31T15:25:21;24.70;67.20
55828;DHT22;41758;51.992;5.890;2023-08-31T15:27:46;24.70;67.40
55828;DHT22;41758;51.992;5.890;2023-08-31T15:30:12;24.70;67.70
55828;DHT22;41758;51.992;5.890;2023-08-31T15:32:38;24.70;68.30
55828;DHT22;41758;51.992;5.890;2023-08-31T15:35:04;24.80;68.40
55828;DHT22;41758;51.992;5.890;2023-08-31T15:37:30;24.90;67.70
55828;DHT22;41758;51.992;5.890;2023-08-31T15:39:56;24.90;67.50
55828;DHT22;41758;51.992;5.890;2023-08-31T15:42:25;24.80;67.60
55828;DHT22;41758;51.992;5.890;2023-08-31T15:44:51;24.70;67.80
55828;DHT22;41758;51.992;5.890;2023-08-31T15:47:18;24.80;68.10
55828;DHT22;41758;51.992;5.890;2023-08-31T15:49:44;24.80;68.20